Terminal Aerodrome Forecast
Issued by NWS

Home | Current Version | Previous Version | Text Only | Print | Product List | Glossary On
Versions: 1 2 3 4 5 6 7 8 9 10 11 12 13 14 15 16 17 18 19 20 21 22 23 24 25
000
FTUS41 KRLX 240800 AAA
TAFCKB
TAF AMD
KCKB 240828Z 2408/2506 VRB03KT 5SM BR BKN250
      TEMPO 2409/2412 6SM BR
     FM241300 00000KT P6SM SCT250=

USA.gov is the U.S. government's official web portal to all federal, state and local government web resources and services.